createdAt,value
2022-12-13T00:00:56.785Z,99669.63
2022-12-13T00:03:23.196Z,99666.84
2022-12-13T00:05:49.564Z,99665.28
2022-12-13T00:08:16.677Z,99662.13
2022-12-13T00:10:43.060Z,99670.13
2022-12-13T00:13:09.413Z,99662.75
2022-12-13T00:15:35.796Z,99661.06
2022-12-13T00:18:02.154Z,99662.44
2022-12-13T00:20:28.532Z,99653.88
2022-12-13T00:22:54.962Z,99646.31
2022-12-13T00:25:21.556Z,99646.78
2022-12-13T00:27:47.986Z,99642.84
2022-12-13T00:30:14.378Z,99644.00
2022-12-13T00:32:40.758Z,99642.00
2022-12-13T00:35:07.524Z,99630.03
2022-12-13T00:37:33.921Z,99633.94
2022-12-13T00:40:00.260Z,99647.78
2022-12-13T00:42:26.605Z,99639.03
2022-12-13T00:44:53.119Z,99642.59
2022-12-13T00:47:20.820Z,99639.13
2022-12-13T00:49:47.156Z,99641.94
2022-12-13T00:52:13.519Z,99644.31
2022-12-13T00:54:39.925Z,99642.78
2022-12-13T00:57:06.270Z,99637.59
2022-12-13T00:59:32.628Z,99631.72
2022-12-13T01:01:58.992Z,99635.91
2022-12-13T01:04:25.340Z,99637.91
2022-12-13T01:06:51.770Z,99639.28
2022-12-13T01:09:25.432Z,99651.31
2022-12-13T01:11:51.782Z,99641.09
2022-12-13T01:14:19.879Z,99644.31
2022-12-13T01:16:46.303Z,99642.44
2022-12-13T01:19:12.725Z,99646.25
2022-12-13T01:21:39.122Z,99637.25
2022-12-13T01:24:06.898Z,99636.81
2022-12-13T01:26:33.835Z,99641.28
2022-12-13T01:29:00.369Z,99637.25
2022-12-13T01:31:27.011Z,99632.00
2022-12-13T01:33:53.463Z,99634.44
2022-12-13T01:36:26.979Z,99626.44
2022-12-13T01:38:54.415Z,99630.56
2022-12-13T01:41:28.545Z,99627.66
2022-12-13T01:44:06.532Z,99630.25
2022-12-13T01:46:35.219Z,99627.03
2022-12-13T01:49:19.245Z,99628.91
2022-12-13T01:51:54.307Z,99628.41
2022-12-13T01:54:33.710Z,99635.44
2022-12-13T01:57:04.402Z,99629.72
2022-12-13T01:59:31.470Z,99630.56
2022-12-13T02:02:00.846Z,99632.38
2022-12-13T02:04:37.358Z,99632.56
2022-12-13T02:07:23.185Z,99633.25
2022-12-13T02:09:57.081Z,99627.19
2022-12-13T02:12:29.496Z,99634.25
2022-12-13T02:15:00.664Z,99632.06
2022-12-13T02:17:44.583Z,99631.56
2022-12-13T02:20:30.787Z,99630.72
2022-12-13T02:23:22.047Z,99626.31
2022-12-13T02:26:20.705Z,99623.88
2022-12-13T02:29:30.740Z,99630.56
2022-12-13T02:32:27.200Z,99627.38
2022-12-13T02:35:10.076Z,99621.03
2022-12-13T02:37:54.443Z,99619.38
2022-12-13T02:40:28.813Z,99627.91
2022-12-13T02:43:07.061Z,99624.59
2022-12-13T02:45:45.005Z,99622.47
2022-12-13T02:48:14.569Z,99628.91
2022-12-13T02:50:41.600Z,99627.81
2022-12-13T02:53:10.473Z,99626.63
2022-12-13T02:55:40.470Z,99622.50
2022-12-13T02:58:07.625Z,99616.75
2022-12-13T03:00:49.229Z,99622.00
2022-12-13T03:04:09.300Z,99618.53
2022-12-13T03:06:46.221Z,99617.25
2022-12-13T03:09:36.693Z,99612.28
2022-12-13T03:12:46.693Z,99618.06
2022-12-13T03:15:22.208Z,99614.81
2022-12-13T03:18:05.030Z,99617.78
2022-12-13T03:20:31.735Z,99621.06
2022-12-13T03:22:58.832Z,99612.44
2022-12-13T03:25:31.856Z,99616.78
2022-12-13T03:28:01.067Z,99616.28
2022-12-13T03:30:29.588Z,99613.09
2022-12-13T03:32:55.932Z,99618.41
2022-12-13T03:35:22.853Z,99608.03
2022-12-13T03:37:49.866Z,99612.63
2022-12-13T03:40:17.103Z,99619.97
2022-12-13T03:42:43.506Z,99609.28
2022-12-13T03:45:10.153Z,99604.78
2022-12-13T03:47:36.528Z,99604.94
2022-12-13T03:50:07.555Z,99602.88
2022-12-13T03:52:51.825Z,99597.00
2022-12-13T03:55:18.880Z,99603.34
2022-12-13T03:57:45.227Z,99597.84
2022-12-13T04:00:12.247Z,99599.53
2022-12-13T04:02:38.767Z,99592.34
2022-12-13T04:05:05.707Z,99591.50
2022-12-13T04:07:34.422Z,99601.31
2022-12-13T04:10:01.685Z,99600.53
2022-12-13T04:12:48.448Z,99608.84
2022-12-13T04:15:15.483Z,99610.59
2022-12-13T04:17:42.077Z,99610.47
2022-12-13T04:20:08.976Z,99610.91
2022-12-13T04:22:35.367Z,99609.28
2022-12-13T04:25:01.807Z,99607.69
2022-12-13T04:27:28.175Z,99607.97
2022-12-13T04:29:54.522Z,99603.88
2022-12-13T04:32:25.888Z,99609.22
2022-12-13T04:34:53.471Z,99608.69
2022-12-13T04:37:27.812Z,99610.34
2022-12-13T04:39:54.191Z,99617.28
2022-12-13T04:42:27.513Z,99606.09
2022-12-13T04:44:54.329Z,99603.00
2022-12-13T04:47:20.701Z,99608.34
2022-12-13T04:49:47.908Z,99608.34
2022-12-13T04:52:22.253Z,99613.38
2022-12-13T04:54:55.794Z,99610.63
2022-12-13T04:57:23.305Z,99604.03
2022-12-13T04:59:49.800Z,99602.38
2022-12-13T05:02:23.815Z,99611.06
2022-12-13T05:04:54.268Z,99601.88
2022-12-13T05:07:21.515Z,99606.44
2022-12-13T05:09:47.864Z,99615.22
2022-12-13T05:12:22.535Z,99611.31
2022-12-13T05:14:50.103Z,99620.25
2022-12-13T05:17:16.711Z,99615.09
2022-12-13T05:19:43.147Z,99623.03
2022-12-13T05:22:19.871Z,99617.25
2022-12-13T05:24:47.651Z,99620.09
2022-12-13T05:27:24.595Z,99622.47
2022-12-13T05:30:03.584Z,99625.28
2022-12-13T05:32:43.330Z,99623.75
2022-12-13T05:35:11.581Z,99624.78
2022-12-13T05:37:37.925Z,99620.31
2022-12-13T05:40:05.351Z,99630.44
2022-12-13T05:42:31.712Z,99626.28
2022-12-13T05:44:58.083Z,99631.75
2022-12-13T05:47:24.805Z,99628.91
2022-12-13T05:49:52.088Z,99632.03
2022-12-13T05:52:20.284Z,99633.06
2022-12-13T05:54:47.040Z,99630.66
2022-12-13T05:57:13.648Z,99631.91
2022-12-13T05:59:39.982Z,99631.19
2022-12-13T06:02:06.491Z,99635.13
2022-12-13T06:04:33.006Z,99639.78
2022-12-13T06:06:59.350Z,99635.91
2022-12-13T06:09:25.722Z,99636.03
2022-12-13T06:11:52.535Z,99640.69
2022-12-13T06:14:27.766Z,99645.19
2022-12-13T06:16:54.199Z,99641.66
2022-12-13T06:19:21.967Z,99645.59
2022-12-13T06:21:49.516Z,99645.88
2022-12-13T06:24:17.889Z,99655.59
2022-12-13T06:26:45.236Z,99648.41
2022-12-13T06:29:13.204Z,99651.56
2022-12-13T06:32:02.370Z,99651.75
2022-12-13T06:34:31.363Z,99649.50
2022-12-13T06:36:57.751Z,99654.03
2022-12-13T06:39:24.161Z,99656.75
2022-12-13T06:41:58.909Z,99657.69
2022-12-13T06:44:25.282Z,99660.56
2022-12-13T06:46:51.624Z,99657.63
2022-12-13T06:49:18.001Z,99662.16
2022-12-13T06:51:44.353Z,99663.16
2022-12-13T06:54:10.701Z,99663.34
2022-12-13T06:56:37.058Z,99662.72
2022-12-13T06:59:03.475Z,99662.94
2022-12-13T07:01:36.639Z,99659.94
2022-12-13T07:04:03.921Z,99661.50
2022-12-13T07:06:30.335Z,99665.00
2022-12-13T07:08:57.615Z,99664.88
2022-12-13T07:11:29.193Z,99677.44
2022-12-13T07:13:55.590Z,99670.59
2022-12-13T07:16:23.090Z,99677.00
2022-12-13T07:19:01.130Z,99674.53
2022-12-13T07:21:29.078Z,99676.38
2022-12-13T07:23:55.626Z,99679.72
2022-12-13T07:26:22.534Z,99684.16
2022-12-13T07:28:53.101Z,99689.81
2022-12-13T07:31:21.887Z,99683.59
2022-12-13T07:33:48.785Z,99692.50
2022-12-13T07:36:17.749Z,99692.59
2022-12-13T07:38:45.111Z,99693.34
2022-12-13T07:41:11.812Z,99692.34
2022-12-13T07:43:38.236Z,99692.78
2022-12-13T07:46:06.406Z,99692.13
2022-12-13T07:48:33.449Z,99692.88
2022-12-13T07:51:06.781Z,99698.16
2022-12-13T07:53:34.360Z,99699.34
2022-12-13T07:56:05.066Z,99696.22
2022-12-13T07:58:33.320Z,99695.03
2022-12-13T08:01:01.531Z,99709.88
2022-12-13T08:03:28.774Z,99702.59
2022-12-13T08:06:13.884Z,99699.72
2022-12-13T08:08:40.354Z,99697.38
2022-12-13T08:11:09.343Z,99695.50
2022-12-13T08:13:36.680Z,99708.97
2022-12-13T08:16:27.973Z,99705.63
2022-12-13T08:18:52.558Z,99699.38
2022-12-13T08:21:53.345Z,99694.13
2022-12-13T08:24:19.995Z,99680.19
2022-12-13T08:26:46.352Z,99679.56
2022-12-13T08:29:22.250Z,99684.09
2022-12-13T08:31:49.064Z,99688.03
2022-12-13T08:34:15.505Z,99683.16
2022-12-13T08:36:41.868Z,99685.03
2022-12-13T08:39:09.020Z,99687.44
2022-12-13T08:41:39.159Z,99690.34
2022-12-13T08:44:06.027Z,99685.44
2022-12-13T08:46:46.302Z,99682.44
2022-12-13T08:49:12.792Z,99684.19
2022-12-13T08:51:39.482Z,99685.16
2022-12-13T08:54:10.420Z,99689.09
2022-12-13T08:56:38.024Z,99685.28
2022-12-13T08:59:04.433Z,99682.25
2022-12-13T09:01:31.091Z,99681.06
2022-12-13T09:04:00.475Z,99669.38
2022-12-13T09:06:26.829Z,99678.34
2022-12-13T09:08:54.647Z,99675.97
2022-12-13T09:11:33.204Z,99683.69
2022-12-13T09:14:03.032Z,99687.00
2022-12-13T09:16:35.884Z,99688.34
2022-12-13T09:19:24.572Z,99685.69
2022-12-13T09:21:53.752Z,99684.72
2022-12-13T09:24:29.341Z,99681.16
2022-12-13T09:27:03.395Z,99683.22
2022-12-13T09:29:36.534Z,99690.06
2022-12-13T09:32:06.092Z,99688.81
2022-12-13T09:34:35.876Z,99680.00
2022-12-13T09:37:02.334Z,99681.56
2022-12-13T09:39:29.662Z,99683.50
2022-12-13T09:42:00.796Z,99691.78
2022-12-13T09:44:43.965Z,99689.25
2022-12-13T09:47:23.640Z,99680.00
2022-12-13T09:49:53.916Z,99687.38
2022-12-13T09:52:23.522Z,99675.97
2022-12-13T09:54:58.967Z,99672.88
2022-12-13T09:57:34.632Z,99673.25
2022-12-13T10:00:04.512Z,99666.66
2022-12-13T10:02:33.567Z,99662.53
2022-12-13T10:05:22.391Z,99662.03
2022-12-13T10:07:53.933Z,99671.00
2022-12-13T10:10:20.403Z,99666.00
2022-12-13T10:12:54.310Z,99660.22
2022-12-13T10:15:22.761Z,99664.34
2022-12-13T10:17:55.329Z,99647.16
2022-12-13T10:20:26.050Z,99650.63
2022-12-13T10:23:30.004Z,99646.06
2022-12-13T10:26:02.791Z,99653.31
2022-12-13T10:28:33.337Z,99649.72
2022-12-13T10:31:01.440Z,99645.31
2022-12-13T10:33:31.857Z,99646.00
2022-12-13T10:36:09.166Z,99638.16
2022-12-13T10:38:41.067Z,99635.44
2022-12-13T10:41:25.593Z,99632.53
2022-12-13T10:44:18.388Z,99636.06
2022-12-13T10:46:51.268Z,99634.22
2022-12-13T10:49:27.271Z,99634.94
2022-12-13T10:51:54.425Z,99625.72
2022-12-13T10:54:38.439Z,99614.78
2022-12-13T10:57:10.987Z,99608.81
2022-12-13T10:59:39.474Z,99612.34
2022-12-13T11:02:27.823Z,99610.63
2022-12-13T11:04:54.707Z,99603.94
2022-12-13T11:07:39.129Z,99612.66
2022-12-13T11:10:26.798Z,99613.53
2022-12-13T11:13:04.088Z,99605.41
2022-12-13T11:15:33.218Z,99600.22
2022-12-13T11:18:04.125Z,99598.09
2022-12-13T11:21:07.734Z,99599.06
2022-12-13T11:23:43.243Z,99591.88
2022-12-13T11:26:15.490Z,99593.59
2022-12-13T11:29:15.273Z,99593.59
2022-12-13T11:32:12.580Z,99584.03
2022-12-13T11:34:44.940Z,99582.91
2022-12-13T11:37:38.047Z,99580.97
2022-12-13T11:40:17.093Z,99584.47
2022-12-13T11:42:55.973Z,99587.97
2022-12-13T11:45:29.449Z,99586.97
2022-12-13T11:48:18.377Z,99581.31
2022-12-13T11:50:51.469Z,99585.00
2022-12-13T11:53:58.187Z,99579.81
2022-12-13T11:56:33.267Z,99585.91
2022-12-13T11:59:11.308Z,99588.34
2022-12-13T12:02:16.580Z,99590.69
2022-12-13T12:04:59.752Z,99593.22
2022-12-13T12:07:48.300Z,99590.38
2022-12-13T12:10:35.120Z,99580.16
2022-12-13T12:13:06.010Z,99581.72
2022-12-13T12:15:41.737Z,99578.50
2022-12-13T12:18:15.740Z,99580.22
2022-12-13T12:21:17.865Z,99577.19
2022-12-13T12:23:59.723Z,99575.53
2022-12-13T12:26:50.461Z,99579.56
2022-12-13T12:29:54.712Z,99574.53
2022-12-13T12:32:58.214Z,99575.69
2022-12-13T12:35:49.582Z,99570.72
2022-12-13T12:38:31.131Z,99577.69
2022-12-13T12:41:17.339Z,99576.69
2022-12-13T12:43:45.117Z,99579.38
2022-12-13T12:46:17.468Z,99583.38
2022-12-13T12:49:23.268Z,99576.53
2022-12-13T12:52:01.652Z,99579.44
2022-12-13T12:54:32.649Z,99573.31
2022-12-13T12:57:08.273Z,99576.84
2022-12-13T12:59:44.256Z,99576.84
2022-12-13T13:02:31.289Z,99577.75
2022-12-13T13:05:13.330Z,99572.56
2022-12-13T13:07:51.381Z,99566.63
2022-12-13T13:10:26.654Z,99564.88
2022-12-13T13:13:12.666Z,99567.47
2022-12-13T13:15:39.513Z,99564.94
2022-12-13T13:18:44.933Z,99564.94
2022-12-13T13:21:23.058Z,99567.31
2022-12-13T13:24:09.925Z,99567.63
2022-12-13T13:26:44.079Z,99569.13
2022-12-13T13:29:26.952Z,99561.28
2022-12-13T13:32:01.431Z,99556.25
2022-12-13T13:34:31.715Z,99560.63
2022-12-13T13:36:59.740Z,99556.41
2022-12-13T13:39:29.033Z,99560.78
2022-12-13T13:42:13.682Z,99564.94
2022-12-13T13:44:46.046Z,99563.22
2022-12-13T13:47:14.326Z,99567.38
2022-12-13T13:50:13.028Z,99566.47
2022-12-13T13:53:21.675Z,99570.81
2022-12-13T13:56:02.047Z,99572.50
2022-12-13T13:59:02.886Z,99586.41
2022-12-13T14:01:47.514Z,99583.69
2022-12-13T14:04:44.233Z,99579.19
2022-12-13T14:07:25.027Z,99579.13
2022-12-13T14:10:11.619Z,99574.69
2022-12-13T14:13:05.336Z,99577.44
2022-12-13T14:15:53.513Z,99591.47
2022-12-13T14:18:22.948Z,99583.88
2022-12-13T14:21:15.103Z,99587.56
2022-12-13T14:24:00.216Z,99582.69
2022-12-13T14:26:26.576Z,99584.69
2022-12-13T14:28:56.728Z,99586.50
2022-12-13T14:31:24.344Z,99578.03
2022-12-13T14:33:53.126Z,99578.16
2022-12-13T14:36:28.594Z,99581.31
2022-12-13T14:39:04.200Z,99585.00
2022-12-13T14:41:30.910Z,99586.22
2022-12-13T14:44:14.365Z,99588.34
2022-12-13T14:47:11.635Z,99588.94
2022-12-13T14:49:48.790Z,99586.34
2022-12-13T14:52:26.240Z,99587.75
2022-12-13T14:55:04.787Z,99586.34
2022-12-13T14:57:33.088Z,99585.16
2022-12-13T15:00:01.799Z,99585.16
2022-12-13T15:02:32.161Z,99578.59
2022-12-13T15:05:01.282Z,99581.78
2022-12-13T15:07:38.106Z,99574.28
2022-12-13T15:10:06.404Z,99577.41
2022-12-13T15:12:32.800Z,99586.41
2022-12-13T15:15:07.397Z,99591.88
2022-12-13T15:17:39.650Z,99581.09
2022-12-13T15:20:31.350Z,99579.69
2022-12-13T15:23:05.986Z,99573.94
2022-12-13T15:25:35.949Z,99571.41
2022-12-13T15:28:03.876Z,99564.91
2022-12-13T15:30:32.969Z,99564.25
2022-12-13T15:33:15.562Z,99566.00
2022-12-13T15:35:42.160Z,99566.53
2022-12-13T15:38:28.239Z,99565.16
2022-12-13T15:40:55.855Z,99567.19
2022-12-13T15:43:29.652Z,99575.94
2022-12-13T15:45:56.061Z,99576.19
2022-12-13T15:48:36.612Z,99570.88
2022-12-13T15:51:29.843Z,99571.00
2022-12-13T15:54:19.200Z,99574.66
2022-12-13T15:56:59.926Z,99572.22
2022-12-13T15:59:33.069Z,99584.41
2022-12-13T16:02:00.786Z,99575.72
2022-12-13T16:04:30.154Z,99570.69
2022-12-13T16:06:56.974Z,99571.00
2022-12-13T16:09:27.374Z,99574.78
2022-12-13T16:12:06.803Z,99574.94
2022-12-13T16:14:48.644Z,99582.63
2022-12-13T16:17:31.659Z,99592.28
2022-12-13T16:20:07.689Z,99588.09
2022-12-13T16:22:35.789Z,99584.72
2022-12-13T16:25:02.250Z,99591.81
2022-12-13T16:27:28.656Z,99579.84
2022-12-13T16:29:55.027Z,99580.81
2022-12-13T16:32:21.464Z,99580.13
2022-12-13T16:34:48.305Z,99582.81
2022-12-13T16:37:25.404Z,99575.09
2022-12-13T16:39:52.415Z,99574.41
2022-12-13T16:42:19.593Z,99569.53
2022-12-13T16:44:47.597Z,99573.91
2022-12-13T16:47:24.330Z,99578.53
2022-12-13T16:49:53.529Z,99576.94
2022-12-13T16:52:21.835Z,99575.25
2022-12-13T16:55:02.902Z,99567.56
2022-12-13T16:57:29.273Z,99565.19
2022-12-13T16:59:55.611Z,99555.09
2022-12-13T17:02:21.985Z,99555.25
2022-12-13T17:04:48.401Z,99546.75
2022-12-13T17:07:14.851Z,99552.88
2022-12-13T17:09:42.114Z,99557.28
2022-12-13T17:12:09.000Z,99555.81
2022-12-13T17:14:35.628Z,99561.19
2022-12-13T17:17:02.062Z,99559.59
2022-12-13T17:19:28.474Z,99554.72
2022-12-13T17:21:54.839Z,99546.00
2022-12-13T17:24:21.288Z,99542.97
2022-12-13T17:26:54.649Z,99545.63
2022-12-13T17:29:22.992Z,99550.09
2022-12-13T17:31:49.369Z,99556.25
2022-12-13T17:34:15.772Z,99555.69
2022-12-13T17:36:43.454Z,99558.25
2022-12-13T17:39:11.336Z,99553.97
2022-12-13T17:41:38.576Z,99561.09
2022-12-13T17:44:05.881Z,99554.25
2022-12-13T17:46:34.417Z,99558.63
2022-12-13T17:49:00.857Z,99558.84
2022-12-13T17:51:27.313Z,99556.31
2022-12-13T17:53:54.235Z,99557.22
2022-12-13T17:56:20.726Z,99549.56
2022-12-13T17:58:47.117Z,99547.03
2022-12-13T18:01:13.471Z,99550.56
2022-12-13T18:03:40.473Z,99553.38
2022-12-13T18:06:07.338Z,99546.63
2022-12-13T18:08:35.797Z,99549.34
2022-12-13T18:11:31.194Z,99548.69
2022-12-13T18:13:49.389Z,99557.38
2022-12-13T18:16:21.850Z,99550.66
2022-12-13T18:18:55.254Z,99547.28
2022-12-13T18:21:22.615Z,99542.19
2022-12-13T18:23:55.353Z,99543.94
2022-12-13T18:26:23.822Z,99547.13
2022-12-13T18:28:50.412Z,99538.75
2022-12-13T18:31:19.920Z,99538.91
2022-12-13T18:33:47.832Z,99535.56
2022-12-13T18:36:15.387Z,99533.47
2022-12-13T18:38:42.308Z,99531.38
2022-12-13T18:41:12.401Z,99538.72
2022-12-13T18:43:38.732Z,99543.41
2022-12-13T18:46:05.384Z,99548.38
2022-12-13T18:48:32.444Z,99545.16
2022-12-13T18:51:00.479Z,99544.94
2022-12-13T18:53:28.519Z,99546.88
2022-12-13T18:56:04.780Z,99539.25
2022-12-13T18:58:35.688Z,99538.38
2022-12-13T19:01:03.465Z,99542.09
2022-12-13T19:03:30.449Z,99533.13
2022-12-13T19:05:57.988Z,99532.03
2022-12-13T19:08:26.316Z,99526.47
2022-12-13T19:10:54.080Z,99524.16
2022-12-13T19:13:22.790Z,99528.78
2022-12-13T19:15:53.846Z,99523.72
2022-12-13T19:18:20.852Z,99518.56
2022-12-13T19:20:49.154Z,99509.47
2022-12-13T19:23:16.191Z,99518.94
2022-12-13T19:25:42.572Z,99536.25
2022-12-13T19:28:10.928Z,99536.00
2022-12-13T19:30:38.408Z,99541.88
2022-12-13T19:33:06.891Z,99542.72
2022-12-13T19:35:33.785Z,99542.72
2022-12-13T19:38:00.436Z,99546.19
2022-12-13T19:40:26.977Z,99529.13
2022-12-13T19:42:53.355Z,99530.97
2022-12-13T19:45:19.780Z,99525.06
2022-12-13T19:47:48.834Z,99517.41
2022-12-13T19:50:15.343Z,99508.75
2022-12-13T19:52:41.726Z,99511.22
2022-12-13T19:55:08.307Z,99505.88
2022-12-13T19:57:35.093Z,99510.22
2022-12-13T20:00:01.717Z,99505.53
2022-12-13T20:02:28.110Z,99510.09
2022-12-13T20:04:54.617Z,99512.44
2022-12-13T20:07:21.158Z,99518.44
2022-12-13T20:09:47.493Z,99509.38
2022-12-13T20:12:13.855Z,99513.28
2022-12-13T20:14:40.225Z,99506.53
2022-12-13T20:17:06.578Z,99508.25
2022-12-13T20:19:33.025Z,99514.38
2022-12-13T20:21:59.371Z,99506.72
2022-12-13T20:24:25.920Z,99499.75
2022-12-13T20:26:52.321Z,99508.47
2022-12-13T20:29:19.148Z,99511.88
2022-12-13T20:31:48.416Z,99510.22
2022-12-13T20:34:15.395Z,99512.03
2022-12-13T20:36:42.525Z,99512.78
2022-12-13T20:39:12.465Z,99508.63
2022-12-13T20:41:38.908Z,99500.13
2022-12-13T20:44:08.422Z,99518.34
2022-12-13T20:46:35.137Z,99507.78
2022-12-13T20:49:03.656Z,99509.72
2022-12-13T20:51:31.930Z,99512.50
2022-12-13T20:53:58.506Z,99508.22
2022-12-13T20:56:27.387Z,99507.09
2022-12-13T20:58:54.440Z,99498.44
2022-12-13T21:01:26.550Z,99495.94
2022-12-13T21:03:54.492Z,99491.72
2022-12-13T21:06:21.389Z,99491.03
2022-12-13T21:08:51.073Z,99490.28
2022-12-13T21:11:25.247Z,99491.06
2022-12-13T21:13:56.154Z,99485.97
2022-12-13T21:16:25.142Z,99496.88
2022-12-13T21:18:56.492Z,99488.38
2022-12-13T21:21:25.091Z,99479.00
2022-12-13T21:23:51.941Z,99485.97
2022-12-13T21:26:18.397Z,99490.28
2022-12-13T21:28:45.045Z,99486.75
2022-12-13T21:31:13.518Z,99490.16
2022-12-13T21:33:40.354Z,99471.22
2022-12-13T21:36:15.401Z,99471.34
2022-12-13T21:38:43.979Z,99474.81
2022-12-13T21:41:11.606Z,99462.81
2022-12-13T21:43:39.097Z,99460.31
2022-12-13T21:46:10.104Z,99449.13
2022-12-13T21:48:38.179Z,99449.25
2022-12-13T21:51:05.875Z,99447.47
2022-12-13T21:53:32.329Z,99442.31
2022-12-13T21:56:17.653Z,99437.28
2022-12-13T21:59:02.971Z,99434.00
2022-12-13T22:01:50.584Z,99430.34
2022-12-13T22:04:18.416Z,99426.13
2022-12-13T22:06:45.084Z,99423.59
2022-12-13T22:09:12.235Z,99428.63
2022-12-13T22:11:39.235Z,99425.44
2022-12-13T22:14:05.782Z,99428.88
2022-12-13T22:16:32.466Z,99429.00
2022-12-13T22:18:58.928Z,99437.53
2022-12-13T22:21:25.407Z,99433.22
2022-12-13T22:23:55.545Z,99428.75
2022-12-13T22:26:23.563Z,99424.63
2022-12-13T22:28:50.569Z,99428.06
2022-12-13T22:31:17.503Z,99425.53
2022-12-13T22:33:44.332Z,99420.00
2022-12-13T22:36:11.249Z,99425.16
2022-12-13T22:38:37.608Z,99423.72
2022-12-13T22:41:05.821Z,99417.03
2022-12-13T22:43:36.235Z,99414.38
2022-12-13T22:46:03.966Z,99405.03
2022-12-13T22:48:31.343Z,99415.09
2022-12-13T22:51:05.202Z,99413.41
2022-12-13T22:53:31.623Z,99408.25
2022-12-13T22:56:24.448Z,99403.59
2022-12-13T22:58:55.620Z,99393.88
2022-12-13T23:01:24.374Z,99392.00
2022-12-13T23:03:50.916Z,99388.81
2022-12-13T23:06:26.121Z,99394.94
2022-12-13T23:08:55.515Z,99393.06
2022-12-13T23:11:40.779Z,99389.91
2022-12-13T23:14:10.017Z,99374.44
2022-12-13T23:16:37.671Z,99368.31
2022-12-13T23:19:39.815Z,99383.66
2022-12-13T23:21:53.213Z,99372.50
2022-12-13T23:24:20.122Z,99365.66
2022-12-13T23:26:46.496Z,99361.31
2022-12-13T23:29:13.145Z,99356.16
2022-12-13T23:31:42.088Z,99359.78
2022-12-13T23:34:09.713Z,99364.94
2022-12-13T23:36:36.229Z,99356.16
2022-12-13T23:39:05.045Z,99347.47
2022-12-13T23:41:33.956Z,99349.22
2022-12-13T23:44:00.846Z,99351.78
2022-12-13T23:46:30.123Z,99349.88
2022-12-13T23:48:58.100Z,99343.53
2022-12-13T23:51:25.257Z,99334.38
2022-12-13T23:53:52.883Z,99333.09
2022-12-13T23:56:19.909Z,99333.72
2022-12-13T23:58:47.456Z,99323.41
